Time;durP1;ratioP1;P1;durP2;ratioP2;P2;SDS_P1;SDS_P2;PMS_P1;PMS_P2;Temp;Humidity;BMP_temperature;BMP_pressure;BME280_temperature;BME280_humidity;BME280_pressure;Samples;Min_cycle;Max_cycle;Signal;HPM_P1;HPM_P2
2023/07/06 00:00:16;;;;;;;11.32;7.18;;;13.90;99.90;;;;;;4954761;28;20483;-64
2023/07/06 00:02:42;;;;;;;11.13;7.50;;;13.90;99.90;;;;;;4966251;28;20609;-64
2023/07/06 00:05:09;;;;;;;11.13;7.25;;;13.90;99.90;;;;;;4959855;28;20408;-64
2023/07/06 00:07:35;;;;;;;10.55;7.40;;;13.90;99.90;;;;;;4945589;28;20782;-64
2023/07/06 00:10:04;;;;;;;11.75;7.30;;;13.90;99.90;;;;;;4966410;28;20409;-64
2023/07/06 00:12:30;;;;;;;11.50;7.40;;;13.90;99.90;;;;;;4972204;28;20456;-64
2023/07/06 00:14:56;;;;;;;13.10;7.60;;;13.80;99.90;;;;;;4971379;28;20483;-64
2023/07/06 00:17:22;;;;;;;11.30;7.63;;;13.80;99.90;;;;;;4953552;28;20941;-64
2023/07/06 00:19:48;;;;;;;11.57;7.50;;;13.70;99.90;;;;;;4945206;28;20432;-64
2023/07/06 00:22:15;;;;;;;12.77;7.18;;;13.70;99.90;;;;;;4994331;28;20407;-64
2023/07/06 00:24:46;;;;;;;10.02;7.00;;;13.70;99.90;;;;;;4963137;28;20408;-64
2023/07/06 00:27:15;;;;;;;10.93;7.30;;;13.70;99.90;;;;;;4956605;28;20919;-64
2023/07/06 00:29:56;;;;;;;11.02;6.93;;;13.60;99.90;;;;;;4953526;28;20474;-64
2023/07/06 00:32:31;;;;;;;10.77;6.93;;;13.60;99.90;;;;;;4946617;28;20914;-64
2023/07/06 00:34:58;;;;;;;11.60;7.30;;;13.60;99.90;;;;;;5004390;28;20473;-64
2023/07/06 00:37:24;;;;;;;9.73;6.82;;;13.60;99.90;;;;;;4969867;28;20442;-64
2023/07/06 00:39:50;;;;;;;10.60;6.87;;;13.50;99.90;;;;;;4954060;28;20404;-64
2023/07/06 00:42:19;;;;;;;11.10;6.90;;;13.50;99.90;;;;;;4953252;28;20495;-64
2023/07/06 00:44:57;;;;;;;9.23;7.07;;;13.50;99.90;;;;;;4953290;28;20408;-64
2023/07/06 00:47:29;;;;;;;12.07;7.32;;;13.50;99.90;;;;;;4950393;28;20788;-64
2023/07/06 00:49:57;;;;;;;10.15;6.75;;;13.50;99.90;;;;;;4985025;28;20842;-64
2023/07/06 00:52:23;;;;;;;10.43;7.10;;;13.40;99.90;;;;;;5013227;28;20416;-64
2023/07/06 00:54:49;;;;;;;10.15;7.00;;;13.40;99.90;;;;;;4951915;28;21017;-64
2023/07/06 00:57:17;;;;;;;11.07;7.15;;;13.40;99.90;;;;;;4969997;28;20428;-64
2023/07/06 00:59:44;;;;;;;9.93;6.75;;;13.40;99.90;;;;;;4970825;28;20437;-64
2023/07/06 01:02:14;;;;;;;9.10;6.53;;;13.30;99.90;;;;;;4982289;28;20508;-64
2023/07/06 01:04:40;;;;;;;10.48;7.40;;;13.30;99.90;;;;;;4952528;28;20721;-64
2023/07/06 01:07:07;;;;;;;9.85;6.60;;;13.30;99.90;;;;;;4959274;28;20439;-64
2023/07/06 01:09:32;;;;;;;11.45;7.00;;;13.30;99.90;;;;;;4976218;28;20414;-64
2023/07/06 01:12:03;;;;;;;12.55;6.97;;;13.30;99.90;;;;;;4972327;28;20487;-64
2023/07/06 01:14:30;;;;;;;11.48;7.15;;;13.30;99.90;;;;;;4967975;28;21242;-64
2023/07/06 01:17:11;;;;;;;12.02;6.88;;;13.30;99.90;;;;;;4966810;28;20486;-64
2023/07/06 01:19:56;;;;;;;11.40;6.38;;;13.20;99.90;;;;;;4919036;28;20424;-64
2023/07/06 01:22:48;;;;;;;9.60;7.10;;;13.20;99.90;;;;;;4972331;28;20974;-64
2023/07/06 01:25:28;;;;;;;10.68;6.65;;;13.20;99.90;;;;;;4957448;28;20417;-64
2023/07/06 01:28:23;;;;;;;9.27;6.43;;;13.20;99.90;;;;;;4950727;28;20418;-64
2023/07/06 01:31:20;;;;;;;10.90;7.30;;;13.20;99.90;;;;;;4978641;28;20420;-64
2023/07/06 01:33:53;;;;;;;9.48;7.03;;;13.20;99.90;;;;;;4980077;28;20793;-64
2023/07/06 01:36:41;;;;;;;11.93;7.30;;;13.30;99.90;;;;;;4954675;28;20471;-64
2023/07/06 01:39:12;;;;;;;9.98;6.78;;;13.20;99.90;;;;;;4972859;28;20431;-64
2023/07/06 01:41:40;;;;;;;9.52;6.80;;;13.20;99.90;;;;;;5014716;28;20444;-64
2023/07/06 01:44:12;;;;;;;10.32;6.90;;;13.20;99.90;;;;;;4963079;28;20410;-64
2023/07/06 01:46:44;;;;;;;14.73;8.05;;;13.20;99.90;;;;;;4953519;28;20416;-64
2023/07/06 01:49:10;;;;;;;10.98;7.22;;;13.10;99.90;;;;;;4970224;28;20500;-64
2023/07/06 01:51:48;;;;;;;11.13;7.33;;;13.10;99.90;;;;;;4950877;28;20503;-64
2023/07/06 01:54:18;;;;;;;11.13;7.50;;;13.20;99.90;;;;;;4997906;28;20442;-64
2023/07/06 01:56:57;;;;;;;10.95;8.27;;;13.20;99.90;;;;;;4987957;28;20431;-64
2023/07/06 01:59:27;;;;;;;10.25;7.78;;;13.20;99.90;;;;;;4961703;28;20754;-64
2023/07/06 02:02:00;;;;;;;12.60;8.52;;;13.10;99.90;;;;;;5006579;28;20408;-64
2023/07/06 02:04:31;;;;;;;11.50;8.18;;;13.20;99.90;;;;;;4962131;28;20479;-64
2023/07/06 02:07:06;;;;;;;13.35;7.97;;;13.10;99.90;;;;;;4968281;28;20416;-64
2023/07/06 02:09:33;;;;;;;12.52;8.15;;;13.10;99.90;;;;;;4993745;28;20422;-64
2023/07/06 02:11:58;;;;;;;12.05;8.05;;;13.10;99.90;;;;;;4963198;28;20960;-64
2023/07/06 02:14:25;;;;;;;11.90;8.10;;;13.10;99.90;;;;;;4968060;28;20409;-64
2023/07/06 02:16:51;;;;;;;11.80;8.40;;;13.20;99.90;;;;;;4968840;28;20436;-64
2023/07/06 02:19:21;;;;;;;16.35;8.38;;;13.20;99.90;;;;;;4963132;28;20488;-64
2023/07/06 02:21:50;;;;;;;18.37;8.73;;;13.20;99.90;;;;;;4977325;28;20495;-64
2023/07/06 02:24:17;;;;;;;12.45;8.48;;;13.20;99.90;;;;;;4985659;28;20415;-64
2023/07/06 02:26:44;;;;;;;14.60;8.63;;;13.20;99.90;;;;;;4986570;28;20812;-64
2023/07/06 02:29:10;;;;;;;14.07;9.20;;;13.20;99.90;;;;;;5023005;28;20503;-64
2023/07/06 02:31:35;;;;;;;13.50;9.13;;;13.20;99.90;;;;;;4969237;28;20961;-64
2023/07/06 02:34:01;;;;;;;13.30;8.77;;;13.20;99.90;;;;;;4968593;28;20829;-64
2023/07/06 02:36:27;;;;;;;14.30;8.65;;;13.20;99.90;;;;;;4969194;28;20479;-64
2023/07/06 02:38:52;;;;;;;14.50;9.13;;;13.20;99.90;;;;;;4972797;28;20468;-64
2023/07/06 02:41:19;;;;;;;12.33;8.83;;;13.20;99.90;;;;;;4951262;28;20453;-64
2023/07/06 02:43:45;;;;;;;15.15;8.80;;;13.20;99.90;;;;;;4982655;28;20427;-64
2023/07/06 02:46:11;;;;;;;12.65;8.82;;;13.20;99.90;;;;;;4969059;28;20404;-64
2023/07/06 02:48:38;;;;;;;15.20;8.70;;;13.20;99.90;;;;;;4968131;28;20435;-64
2023/07/06 02:51:03;;;;;;;14.25;8.70;;;13.20;99.90;;;;;;4949357;28;20506;-64
2023/07/06 02:53:29;;;;;;;14.63;8.80;;;13.20;99.90;;;;;;4943233;28;20519;-64
2023/07/06 02:55:54;;;;;;;12.20;8.73;;;13.20;99.90;;;;;;4974172;28;20413;-64
2023/07/06 02:58:20;;;;;;;14.68;8.93;;;13.30;99.90;;;;;;5013525;28;20473;-64
2023/07/06 03:00:50;;;;;;;14.73;8.80;;;13.30;99.90;;;;;;4968140;28;20404;-64
2023/07/06 03:03:15;;;;;;;13.13;9.07;;;13.30;99.90;;;;;;4967787;28;20420;-64
2023/07/06 03:05:46;;;;;;;14.60;9.30;;;13.30;99.90;;;;;;4950871;28;20917;-64
2023/07/06 03:08:12;;;;;;;14.57;8.93;;;13.30;99.90;;;;;;4979747;28;20452;-64
2023/07/06 03:10:38;;;;;;;16.37;9.17;;;13.30;99.90;;;;;;5005318;28;20439;-64
2023/07/06 03:13:06;;;;;;;14.48;8.90;;;13.30;99.90;;;;;;4971030;28;20416;-64
2023/07/06 03:15:32;;;;;;;12.63;8.88;;;13.30;99.90;;;;;;4950442;28;20424;-64
2023/07/06 03:17:57;;;;;;;13.43;8.43;;;13.30;99.90;;;;;;4968155;28;20420;-63
2023/07/06 03:20:23;;;;;;;14.00;9.17;;;13.30;99.90;;;;;;4982829;22;20467;-65
2023/07/06 03:22:52;;;;;;;14.15;8.95;;;13.30;99.90;;;;;;4961866;28;20419;-64
2023/07/06 03:25:19;;;;;;;13.95;9.05;;;13.20;99.90;;;;;;4961953;28;20435;-64
2023/07/06 03:27:48;;;;;;;15.05;8.88;;;13.30;99.90;;;;;;5057788;28;20912;-64
2023/07/06 03:30:19;;;;;;;13.50;9.18;;;13.20;99.90;;;;;;5065704;28;20396;-65
2023/07/06 03:32:45;;;;;;;13.77;8.80;;;13.30;99.90;;;;;;5061032;28;20453;-64
2023/07/06 03:35:12;;;;;;;12.83;8.50;;;13.30;99.90;;;;;;5064583;28;20391;-64
2023/07/06 03:37:38;;;;;;;14.05;8.63;;;13.30;99.90;;;;;;5058033;28;20425;-64
2023/07/06 03:40:10;;;;;;;17.25;8.60;;;13.40;99.90;;;;;;5052859;28;20405;-65
2023/07/06 03:42:38;;;;;;;15.95;8.43;;;13.30;99.90;;;;;;5065841;28;20420;-66
2023/07/06 03:45:05;;;;;;;16.83;8.77;;;13.50;99.90;;;;;;5053221;28;20402;-64
2023/07/06 03:47:33;;;;;;;14.80;8.65;;;13.30;99.90;;;;;;5061422;28;20738;-65
2023/07/06 03:49:59;;;;;;;18.42;8.95;;;13.30;99.90;;;;;;5055824;28;20859;-65
2023/07/06 03:52:27;;;;;;;16.50;9.00;;;13.40;99.90;;;;;;5063049;28;20484;-61
2023/07/06 03:54:53;;;;;;;15.55;9.10;;;13.30;99.90;;;;;;5059024;28;20418;-63
2023/07/06 03:57:20;;;;;;;16.20;8.75;;;13.30;99.90;;;;;;5066295;28;20469;-63
2023/07/06 03:59:46;;;;;;;14.27;8.20;;;13.40;99.90;;;;;;5053803;28;20401;-64
2023/07/06 04:02:12;;;;;;;12.80;8.57;;;13.40;99.90;;;;;;5062991;28;20416;-62
2023/07/06 04:04:39;;;;;;;15.77;9.10;;;13.40;99.90;;;;;;5061067;28;20413;-64
2023/07/06 04:07:07;;;;;;;15.00;9.02;;;13.40;99.90;;;;;;5065416;28;20818;-65
2023/07/06 04:09:33;;;;;;;16.83;8.85;;;13.40;99.90;;;;;;5051090;28;20794;-65
2023/07/06 04:11:59;;;;;;;19.53;9.03;;;13.50;99.90;;;;;;5055407;28;20416;-64
2023/07/06 04:14:25;;;;;;;15.02;8.63;;;13.50;99.90;;;;;;5046844;28;20405;-64
2023/07/06 04:16:55;;;;;;;17.03;9.40;;;13.50;99.90;;;;;;5062361;28;20443;-64
2023/07/06 04:19:21;;;;;;;15.40;8.70;;;13.50;99.90;;;;;;5063471;28;20974;-64
2023/07/06 04:21:47;;;;;;;15.15;9.48;;;13.50;99.90;;;;;;5061689;28;20409;-64
2023/07/06 04:24:13;;;;;;;18.08;9.13;;;13.50;99.90;;;;;;5065268;28;20432;-64
2023/07/06 04:26:45;;;;;;;16.97;9.17;;;13.50;99.90;;;;;;5063020;28;20407;-64
2023/07/06 04:29:11;;;;;;;18.45;9.38;;;13.50;99.90;;;;;;5065783;28;20436;-64
2023/07/06 04:31:38;;;;;;;14.98;9.68;;;13.50;99.90;;;;;;5050232;28;20934;-65
2023/07/06 04:34:07;;;;;;;16.70;9.65;;;13.50;99.90;;;;;;5060417;28;20435;-65
2023/07/06 04:36:32;;;;;;;14.57;8.93;;;13.50;99.90;;;;;;5056549;28;20513;-64
2023/07/06 04:38:59;;;;;;;14.18;9.13;;;13.50;99.90;;;;;;5051270;28;20444;-65
2023/07/06 04:41:26;;;;;;;13.70;9.35;;;13.40;99.90;;;;;;5066354;28;20487;-65
2023/07/06 04:43:52;;;;;;;15.82;9.57;;;13.50;99.90;;;;;;5065767;28;20395;-65
2023/07/06 04:46:20;;;;;;;15.02;9.48;;;13.50;99.90;;;;;;5066786;28;20405;-65
2023/07/06 04:48:47;;;;;;;15.50;9.77;;;13.60;99.90;;;;;;5069043;28;20427;-65
2023/07/06 04:51:12;;;;;;;17.35;9.65;;;13.60;99.90;;;;;;5060601;28;20498;-65
2023/07/06 04:53:38;;;;;;;13.82;9.77;;;13.50;99.90;;;;;;5060874;28;20530;-65
2023/07/06 04:56:07;;;;;;;15.67;9.97;;;13.60;99.90;;;;;;5060707;28;20818;-65
2023/07/06 04:58:32;;;;;;;18.25;10.38;;;13.60;99.90;;;;;;5054933;28;20490;-65
2023/07/06 05:01:05;;;;;;;16.50;9.80;;;13.60;99.90;;;;;;5066383;28;20494;-65
2023/07/06 05:03:31;;;;;;;18.75;10.52;;;13.60;99.90;;;;;;5057099;28;20492;-65
2023/07/06 05:06:05;;;;;;;17.15;10.40;;;13.60;99.90;;;;;;5061527;28;20392;-65
2023/07/06 05:08:32;;;;;;;15.65;9.93;;;13.70;99.90;;;;;;5058551;28;20396;-65
2023/07/06 05:10:58;;;;;;;16.70;10.10;;;13.80;99.90;;;;;;5070838;28;20403;-65
2023/07/06 05:13:24;;;;;;;17.33;10.40;;;13.70;99.90;;;;;;5058319;28;21235;-65
2023/07/06 05:15:51;;;;;;;17.83;11.20;;;13.60;99.90;;;;;;5070317;28;20461;-65
2023/07/06 05:18:19;;;;;;;15.75;10.63;;;13.70;99.90;;;;;;5071457;28;20434;-65
2023/07/06 05:20:48;;;;;;;18.40;10.80;;;13.80;99.90;;;;;;5067042;28;20395;-65
2023/07/06 05:23:14;;;;;;;22.13;11.20;;;13.80;99.90;;;;;;5053716;28;20990;-65
2023/07/06 05:25:40;;;;;;;15.63;10.70;;;13.80;99.90;;;;;;5054423;28;20777;-65
2023/07/06 05:28:06;;;;;;;16.35;10.30;;;13.80;99.90;;;;;;5064086;28;20426;-65
2023/07/06 05:30:32;;;;;;;20.45;11.18;;;13.90;99.90;;;;;;5064931;28;20421;-65
2023/07/06 05:32:57;;;;;;;16.58;10.35;;;14.00;99.90;;;;;;5065374;28;20413;-65
2023/07/06 05:35:23;;;;;;;19.80;10.95;;;14.00;99.90;;;;;;5057583;28;20406;-65
2023/07/06 05:37:51;;;;;;;18.70;10.70;;;14.10;99.90;;;;;;5052627;28;20452;-65
2023/07/06 05:40:17;;;;;;;19.20;10.80;;;14.10;99.90;;;;;;5056291;28;20412;-65
2023/07/06 05:42:43;;;;;;;20.53;10.80;;;14.30;99.90;;;;;;5062743;28;20407;-65
2023/07/06 05:45:09;;;;;;;16.97;9.97;;;14.30;99.90;;;;;;5069101;28;20407;-65
2023/07/06 05:47:34;;;;;;;20.13;10.23;;;14.40;99.90;;;;;;5069493;28;20403;-65
2023/07/06 05:50:00;;;;;;;18.63;10.57;;;14.40;99.90;;;;;;5068324;28;20915;-65
2023/07/06 05:52:27;;;;;;;19.90;10.43;;;14.40;99.90;;;;;;5053215;28;20405;-65
2023/07/06 05:54:53;;;;;;;21.20;10.60;;;14.50;99.90;;;;;;5051512;28;20411;-65
2023/07/06 05:57:19;;;;;;;18.95;10.45;;;14.50;99.90;;;;;;5061567;28;20428;-65
2023/07/06 05:59:45;;;;;;;19.80;10.55;;;14.60;99.90;;;;;;5061677;28;20469;-65
2023/07/06 06:02:12;;;;;;;19.52;9.60;;;14.50;99.90;;;;;;5064551;28;20443;-65
2023/07/06 06:04:41;;;;;;;18.05;10.00;;;14.60;99.90;;;;;;5069110;28;20907;-65
2023/07/06 06:07:07;;;;;;;17.77;10.02;;;14.60;99.90;;;;;;5067560;28;20406;-65
2023/07/06 06:09:33;;;;;;;19.17;10.73;;;14.70;99.90;;;;;;5057966;28;20410;-65
2023/07/06 06:12:00;;;;;;;19.73;9.95;;;14.80;99.90;;;;;;5056710;28;20919;-65
2023/07/06 06:14:26;;;;;;;17.92;10.30;;;14.80;99.90;;;;;;5061606;28;20737;-65
2023/07/06 06:16:52;;;;;;;21.38;10.52;;;14.80;99.90;;;;;;5046417;28;20487;-65
2023/07/06 06:19:18;;;;;;;19.80;9.53;;;14.90;99.90;;;;;;5067511;28;20395;-66
2023/07/06 06:21:44;;;;;;;19.97;9.90;;;14.90;99.90;;;;;;5068491;28;20439;-65
2023/07/06 06:24:09;;;;;;;18.40;10.30;;;15.00;99.90;;;;;;5058171;28;20396;-65
2023/07/06 06:26:36;;;;;;;20.88;10.20;;;15.10;99.90;;;;;;5063759;28;20439;-65
2023/07/06 06:29:03;;;;;;;20.67;9.95;;;15.00;99.90;;;;;;5065774;28;20469;-66
2023/07/06 06:31:29;;;;;;;17.38;10.02;;;15.10;99.90;;;;;;5058474;28;20413;-65
2023/07/06 06:33:55;;;;;;;22.17;10.40;;;15.10;99.90;;;;;;5062554;28;20810;-66
2023/07/06 06:36:22;;;;;;;17.97;10.37;;;15.10;99.90;;;;;;5051300;28;20426;-65
2023/07/06 06:38:48;;;;;;;19.40;10.07;;;15.20;99.90;;;;;;5049983;28;20425;-65
2023/07/06 06:41:15;;;;;;;21.77;10.20;;;15.20;99.90;;;;;;5068637;28;20431;-65
2023/07/06 06:43:44;;;;;;;19.95;10.10;;;15.20;99.90;;;;;;5066862;28;20415;-65
2023/07/06 06:46:11;;;;;;;19.50;10.40;;;15.30;99.90;;;;;;5066035;28;20407;-65
2023/07/06 06:48:39;;;;;;;20.05;10.25;;;15.30;99.90;;;;;;5069117;28;20889;-66
2023/07/06 06:51:07;;;;;;;22.98;10.57;;;15.40;99.90;;;;;;5061013;28;20899;-65
2023/07/06 06:53:34;;;;;;;21.30;10.47;;;15.60;99.90;;;;;;5055081;28;20409;-66
2023/07/06 06:55:59;;;;;;;19.25;10.50;;;15.60;99.90;;;;;;5068100;28;20396;-65
2023/07/06 06:58:25;;;;;;;21.23;10.90;;;15.70;99.90;;;;;;5056918;28;20405;-65
2023/07/06 07:00:59;;;;;;;19.80;9.85;;;15.70;99.90;;;;;;5064100;28;20808;-65
2023/07/06 07:03:27;;;;;;;21.17;10.55;;;15.80;99.90;;;;;;5060517;28;20431;-65
2023/07/06 07:06:11;;;;;;;20.33;10.23;;;15.90;99.90;;;;;;5061985;28;20426;-66
2023/07/06 07:08:39;;;;;;;20.65;10.43;;;16.00;99.90;;;;;;5053833;28;20405;-66
2023/07/06 07:11:06;;;;;;;17.77;10.02;;;16.00;99.90;;;;;;5050794;28;20665;-66
2023/07/06 07:13:33;;;;;;;19.13;10.27;;;16.20;99.90;;;;;;5062641;28;20402;-66
2023/07/06 07:15:58;;;;;;;20.33;10.20;;;16.20;99.90;;;;;;5064386;28;20427;-66
2023/07/06 07:18:24;;;;;;;22.17;10.83;;;16.30;99.90;;;;;;5058703;28;20943;-66
2023/07/06 07:20:54;;;;;;;21.10;9.90;;;16.40;99.90;;;;;;5059756;28;20435;-65
2023/07/06 07:23:25;;;;;;;19.15;10.10;;;16.50;99.90;;;;;;5055633;28;20399;-65
2023/07/06 07:25:51;;;;;;;21.33;9.65;;;16.50;99.90;;;;;;5060789;28;20393;-65
2023/07/06 07:28:18;;;;;;;20.02;10.20;;;16.60;99.90;;;;;;5062807;28;20771;-65
2023/07/06 07:31:06;;;;;;;21.13;11.60;;;16.70;99.90;;;;;;5067129;28;20465;-65
2023/07/06 07:33:32;;;;;;;19.37;11.57;;;16.80;99.90;;;;;;5049478;28;20915;-65
2023/07/06 07:36:03;;;;;;;23.70;11.23;;;16.90;99.90;;;;;;5063783;28;20426;-65
2023/07/06 07:38:29;;;;;;;19.17;11.30;;;16.90;99.90;;;;;;5058506;28;20401;-65
2023/07/06 07:41:00;;;;;;;18.77;10.80;;;17.10;99.90;;;;;;5057367;28;20401;-65
2023/07/06 07:43:28;;;;;;;19.60;11.00;;;17.20;99.90;;;;;;5050873;28;20464;-65
2023/07/06 07:46:05;;;;;;;18.50;10.05;;;17.30;99.90;;;;;;5053823;28;20489;-65
2023/07/06 07:48:33;;;;;;;17.08;10.55;;;17.40;99.90;;;;;;5054909;28;21291;-65
2023/07/06 07:51:02;;;;;;;17.27;10.40;;;17.30;99.90;;;;;;5056978;28;20405;-65
2023/07/06 07:53:33;;;;;;;21.20;9.65;;;17.30;99.90;;;;;;5054902;28;20401;-65
2023/07/06 07:55:59;;;;;;;17.63;9.02;;;17.30;99.90;;;;;;5059458;28;20392;-65
2023/07/06 07:58:26;;;;;;;14.35;9.00;;;17.20;99.90;;;;;;5053275;28;20450;-65
2023/07/06 08:00:55;;;;;;;15.52;8.13;;;17.20;99.90;;;;;;5065517;28;20395;-65
2023/07/06 08:03:23;;;;;;;16.42;8.77;;;17.20;99.90;;;;;;5065167;28;20399;-66
2023/07/06 08:05:54;;;;;;;16.80;8.35;;;17.20;99.90;;;;;;5062081;28;20419;-65
2023/07/06 08:08:24;;;;;;;16.17;7.60;;;17.40;99.90;;;;;;5064880;28;20435;-65
2023/07/06 08:10:53;;;;;;;13.07;7.20;;;17.40;99.90;;;;;;5054316;28;20405;-65
2023/07/06 08:13:20;;;;;;;12.77;6.90;;;17.40;99.90;;;;;;5053156;28;20435;-65
2023/07/06 08:15:47;;;;;;;15.00;7.78;;;17.50;99.90;;;;;;5035992;28;20404;-65
2023/07/06 08:18:12;;;;;;;13.80;6.63;;;17.60;99.90;;;;;;5066551;28;20453;-65
2023/07/06 08:20:38;;;;;;;14.07;6.80;;;17.70;99.90;;;;;;5065359;28;20943;-65
2023/07/06 08:23:06;;;;;;;12.53;6.40;;;17.70;99.90;;;;;;5061907;28;20399;-65
2023/07/06 08:25:40;;;;;;;11.90;6.55;;;17.80;99.90;;;;;;5070811;28;20462;-65
2023/07/06 08:28:10;;;;;;;12.00;6.28;;;18.10;99.90;;;;;;5057325;28;20415;-65
2023/07/06 08:30:38;;;;;;;11.43;5.97;;;18.20;99.90;;;;;;5052755;28;20405;-65
2023/07/06 08:33:04;;;;;;;17.55;6.00;;;18.50;99.90;;;;;;5071339;28;20403;-66
2023/07/06 08:35:30;;;;;;;12.05;5.40;;;18.80;99.90;;;;;;5063484;28;20986;-65
2023/07/06 08:37:57;;;;;;;10.88;5.45;;;19.00;99.90;;;;;;5067579;28;20438;-65
2023/07/06 08:40:28;;;;;;;11.40;5.40;;;18.90;99.90;;;;;;5071957;28;20399;-66
2023/07/06 08:42:56;;;;;;;11.13;5.43;;;19.00;99.90;;;;;;5065326;28;20432;-65
2023/07/06 08:45:25;;;;;;;14.98;5.95;;;19.00;99.90;;;;;;5068181;28;20818;-65
2023/07/06 08:47:51;;;;;;;15.48;5.57;;;19.00;99.90;;;;;;5071107;28;20426;-65
2023/07/06 08:50:29;;;;;;;10.63;5.25;;;19.20;99.90;;;;;;5066759;28;20475;-65
2023/07/06 08:52:56;;;;;;;10.88;5.35;;;19.40;99.90;;;;;;5067569;28;20411;-66
2023/07/06 08:55:24;;;;;;;13.68;5.20;;;19.80;99.90;;;;;;5068906;28;20414;-66
2023/07/06 08:57:51;;;;;;;9.60;4.85;;;19.90;99.90;;;;;;5062439;28;20432;-66
2023/07/06 09:00:25;;;;;;;11.70;4.88;;;20.10;99.90;;;;;;5062471;28;20398;-66
2023/07/06 09:02:55;;;;;;;10.63;5.10;;;20.40;99.90;;;;;;5061522;28;20766;-66
2023/07/06 09:05:21;;;;;;;13.30;6.05;;;20.60;99.90;;;;;;5058385;28;20440;-66
2023/07/06 09:07:48;;;;;;;13.07;5.45;;;20.70;99.90;;;;;;5063533;28;20451;-66
2023/07/06 09:10:15;;;;;;;11.55;5.47;;;20.80;99.90;;;;;;5057400;28;20919;-66
2023/07/06 09:12:41;;;;;;;8.95;4.50;;;20.90;99.90;;;;;;5057095;28;20762;-66
2023/07/06 09:15:10;;;;;;;8.30;4.10;;;21.00;99.90;;;;;;5051151;28;20401;-65
2023/07/06 09:17:52;;;;;;;9.50;4.38;;;20.90;99.90;;;;;;5066341;28;20423;-66
2023/07/06 09:20:20;;;;;;;9.02;4.03;;;21.00;99.90;;;;;;5054011;28;21099;-67
2023/07/06 09:22:47;;;;;;;6.28;3.40;;;20.90;99.90;;;;;;5066831;28;20415;-64
2023/07/06 09:25:25;;;;;;;10.20;3.80;;;20.70;99.90;;;;;;5068036;28;20415;-67
2023/07/06 09:27:51;;;;;;;8.73;3.63;;;20.60;99.90;;;;;;5059185;28;20423;-65
2023/07/06 09:30:39;;;;;;;7.65;3.60;;;20.40;99.90;;;;;;5055470;28;20759;-66
2023/07/06 09:33:19;;;;;;;10.07;3.88;;;20.30;99.90;;;;;;5056606;28;20790;-64
2023/07/06 09:35:45;;;;;;;6.93;3.70;;;20.20;99.90;;;;;;5069322;28;20394;-70
2023/07/06 09:38:15;;;;;;;9.30;3.70;;;20.00;99.90;;;;;;5059696;28;20423;-64
2023/07/06 09:40:43;;;;;;;7.53;3.20;;;19.80;99.90;;;;;;5056858;28;20505;-64
2023/07/06 09:43:37;;;;;;;6.85;3.40;;;19.70;99.90;;;;;;5066763;28;20565;-64
2023/07/06 09:46:04;;;;;;;8.38;3.50;;;19.60;99.90;;;;;;5056573;28;20791;-66
2023/07/06 09:48:38;;;;;;;8.82;3.30;;;19.60;99.90;;;;;;5062454;28;20858;-68
2023/07/06 09:51:13;;;;;;;7.37;3.10;;;19.60;99.90;;;;;;5057402;28;20415;-64
2023/07/06 09:53:53;;;;;;;7.23;2.90;;;19.60;99.90;;;;;;5057565;28;20383;-64
2023/07/06 09:56:18;;;;;;;8.35;2.78;;;19.80;99.90;;;;;;5066504;28;20402;-64
2023/07/06 09:58:49;;;;;;;6.17;2.40;;;19.80;99.90;;;;;;5068068;28;20411;-65
2023/07/06 10:01:27;;;;;;;5.72;2.17;;;19.80;99.30;;;;;;5068136;28;20898;-64
2023/07/06 10:04:19;;;;;;;5.90;2.40;;;19.70;99.60;;;;;;5059646;28;20406;-66
2023/07/06 10:07:05;;;;;;;7.50;2.65;;;19.60;99.00;;;;;;5059154;28;20405;-64
2023/07/06 10:09:57;;;;;;;5.90;2.43;;;19.50;99.10;;;;;;5062047;28;20442;-64
2023/07/06 10:12:45;;;;;;;6.57;2.63;;;19.50;99.90;;;;;;5062705;28;20403;-64
2023/07/06 10:15:21;;;;;;;6.40;2.60;;;19.40;99.90;;;;;;5057982;28;20459;-64
2023/07/06 10:18:00;;;;;;;7.53;3.20;;;19.40;99.90;;;;;;5060739;28;20420;-64
2023/07/06 10:20:47;;;;;;;8.32;3.15;;;19.40;99.90;;;;;;5049471;28;20407;-68
2023/07/06 10:23:32;;;;;;;7.97;3.40;;;19.40;99.90;;;;;;5056413;28;20401;-65
2023/07/06 10:26:32;;;;;;;8.82;3.35;;;19.40;99.90;;;;;;5064574;28;20384;-67
2023/07/06 10:29:29;;;;;;;7.85;3.15;;;19.30;99.90;;;;;;5066224;28;20496;-64
2023/07/06 10:31:57;;;;;;;9.68;3.30;;;19.30;99.90;;;;;;5054265;28;20991;-65
2023/07/06 10:34:32;;;;;;;8.25;3.40;;;19.30;99.90;;;;;;5063914;28;20806;-66
2023/07/06 10:37:03;;;;;;;8.27;3.40;;;19.40;99.90;;;;;;5061953;28;20431;-65
2023/07/06 10:39:29;;;;;;;10.57;3.70;;;19.50;99.90;;;;;;5058011;28;20898;-65
2023/07/06 10:42:03;;;;;;;10.70;3.70;;;19.50;99.90;;;;;;5053177;28;20414;-67
2023/07/06 10:44:40;;;;;;;9.32;3.60;;;19.40;99.90;;;;;;5056154;28;20478;-67
2023/07/06 10:47:07;;;;;;;10.10;3.80;;;19.40;99.90;;;;;;5056865;28;20419;-64
2023/07/06 10:50:08;;;;;;;10.30;3.47;;;19.50;99.90;;;;;;5060223;28;20904;-66
2023/07/06 10:52:41;;;;;;;8.02;3.42;;;19.60;99.90;;;;;;5058023;28;20455;-65
2023/07/06 10:55:29;;;;;;;7.93;3.50;;;19.70;99.90;;;;;;5054458;28;20523;-68
2023/07/06 10:58:04;;;;;;;10.05;3.30;;;19.80;99.90;;;;;;5071748;28;20440;-67
2023/07/06 11:00:33;;;;;;;8.10;3.50;;;20.00;99.90;;;;;;5057355;28;20458;-65
2023/07/06 11:03:00;;;;;;;8.05;3.60;;;20.40;99.90;;;;;;5052853;28;20773;-68
2023/07/06 11:05:34;;;;;;;11.00;3.72;;;20.80;99.90;;;;;;5060725;28;20470;-65
2023/07/06 11:08:05;;;;;;;9.25;3.75;;;21.20;99.90;;;;;;5058685;28;20434;-72
2023/07/06 11:10:39;;;;;;;7.88;3.30;;;21.40;99.90;;;;;;5051212;28;20398;-69
2023/07/06 11:13:04;;;;;;;6.63;3.00;;;21.50;99.50;;;;;;5048312;28;20423;-68
2023/07/06 11:15:39;;;;;;;5.47;2.60;;;21.40;97.70;;;;;;5037255;28;20839;-67
2023/07/06 11:18:18;;;;;;;6.22;2.33;;;21.20;95.30;;;;;;5059066;28;21143;-64
2023/07/06 11:21:02;;;;;;;6.60;2.55;;;21.10;95.20;;;;;;5051313;28;20702;-66
2023/07/06 11:23:45;;;;;;;6.30;2.40;;;21.00;95.50;;;;;;5048240;28;20401;-68
2023/07/06 11:26:51;;;;;;;8.57;2.60;;;20.90;95.10;;;;;;5057104;28;20510;-64
2023/07/06 11:29:22;;;;;;;6.90;2.60;;;21.00;95.90;;;;;;5057579;28;20443;-64
2023/07/06 11:31:58;;;;;;;6.35;2.72;;;21.00;95.90;;;;;;5051620;28;20751;-67
2023/07/06 11:34:48;;;;;;;8.00;2.70;;;21.10;95.70;;;;;;5051800;28;20907;-66
2023/07/06 11:37:40;;;;;;;6.32;2.80;;;21.30;97.40;;;;;;5053754;28;20727;-66
2023/07/06 11:41:01;;;;;;;6.37;3.17;;;21.60;96.10;;;;;;5060963;28;20919;-67
2023/07/06 11:43:56;;;;;;;6.70;3.00;;;21.70;95.20;;;;;;4975933;28;20439;-72
2023/07/06 11:46:31;;;;;;;7.37;2.87;;;21.60;95.50;;;;;;4999625;28;20580;-72
2023/07/06 11:49:08;;;;;;;5.93;2.50;;;21.50;94.40;;;;;;5044619;28;20423;-65
2023/07/06 11:51:34;;;;;;;8.10;2.85;;;21.60;94.50;;;;;;5059511;28;20422;-67
2023/07/06 11:54:01;;;;;;;6.97;2.60;;;21.70;94.50;;;;;;5056987;28;20473;-64
2023/07/06 11:56:50;;;;;;;8.27;2.97;;;21.80;93.00;;;;;;5050218;28;20465;-74
2023/07/06 11:59:40;;;;;;;5.73;2.80;;;21.80;93.10;;;;;;5048414;28;20939;-65
2023/07/06 12:02:27;;;;;;;6.65;2.92;;;21.80;92.60;;;;;;5055741;28;20388;-68
2023/07/06 12:04:52;;;;;;;6.05;2.55;;;21.80;93.10;;;;;;5059887;28;20843;-65
2023/07/06 12:07:29;;;;;;;5.50;2.80;;;21.60;92.10;;;;;;5058129;28;20399;-66
2023/07/06 12:10:04;;;;;;;6.05;2.75;;;21.60;92.00;;;;;;5054205;28;20509;-66
2023/07/06 12:12:30;;;;;;;7.07;3.33;;;21.40;92.90;;;;;;5058737;28;20763;-65
2023/07/06 12:14:58;;;;;;;8.85;3.28;;;21.30;93.10;;;;;;5059223;28;20927;-67
2023/07/06 12:17:24;;;;;;;7.23;3.33;;;21.10;93.10;;;;;;5053197;28;20434;-70
2023/07/06 12:19:57;;;;;;;8.20;3.67;;;21.10;93.70;;;;;;5059819;28;20403;-67
2023/07/06 12:22:23;;;;;;;9.00;4.05;;;21.00;94.70;;;;;;5025939;28;20397;-68
2023/07/06 12:24:52;;;;;;;9.30;4.28;;;20.80;95.10;;;;;;5056469;28;20422;-64
2023/07/06 12:27:18;;;;;;;8.60;4.20;;;20.70;95.60;;;;;;5061490;28;20523;-70
2023/07/06 12:29:45;;;;;;;8.10;4.30;;;20.60;95.90;;;;;;5060315;28;20411;-69
2023/07/06 12:32:20;;;;;;;7.00;3.90;;;20.50;96.50;;;;;;5055455;28;20457;-64
2023/07/06 12:34:52;;;;;;;10.85;4.18;;;20.40;96.40;;;;;;5056729;28;20423;-65
2023/07/06 12:37:20;;;;;;;8.30;3.83;;;20.30;96.90;;;;;;5054125;28;20414;-69
2023/07/06 12:39:47;;;;;;;8.98;3.88;;;20.30;97.10;;;;;;5045034;28;20396;-67
2023/07/06 12:42:16;;;;;;;7.63;3.50;;;20.20;97.70;;;;;;5060999;28;20813;-69
2023/07/06 12:44:44;;;;;;;9.98;4.30;;;20.30;97.70;;;;;;5047484;28;20433;-68
2023/07/06 12:47:32;;;;;;;8.57;3.75;;;20.40;97.80;;;;;;5045736;28;20437;-64
2023/07/06 12:50:00;;;;;;;9.40;3.80;;;20.50;98.00;;;;;;5056652;28;20473;-70
2023/07/06 12:52:28;;;;;;;7.60;3.55;;;20.60;97.60;;;;;;5057454;28;20965;-67
2023/07/06 12:54:55;;;;;;;8.53;3.37;;;20.70;97.30;;;;;;5056623;28;20505;-65